Time;durP1;ratioP1;P1;durP2;ratioP2;P2;SDS_P1;SDS_P2;PMS_P1;PMS_P2;Temp;Humidity;BMP_temperature;BMP_pressure;BME280_temperature;BME280_humidity;BME280_pressure;Samples;Min_cycle;Max_cycle;Signal;HPM_P1;HPM_P2
2023/01/05 00:01:23;;;;;;;4.47;1.50;;;;;11.40;96505.00;;;;8260341;28;20326;-78
2023/01/05 00:05:26;;;;;;;1.20;1.20;;;;;11.40;96500.00;;;;8260395;28;20198;-77
2023/01/05 00:09:29;;;;;;;1.20;1.20;;;;;11.30;96497.00;;;;8260420;28;20651;-77
2023/01/05 00:22:37;;;;;;;1.42;1.20;;;;;11.30;96489.00;;;;8260550;28;20203;-77
2023/01/05 00:26:40;;;;;;;1.10;1.10;;;;;11.30;96485.00;;;;8260589;28;20335;-77
2023/01/05 00:30:45;;;;;;;1.25;1.25;;;;;11.30;96471.00;;;;8261355;28;20275;-78
2023/01/05 00:34:59;;;;;;;1.10;1.10;;;;;11.30;96478.00;;;;8260076;28;20257;-78
2023/01/05 00:39:02;;;;;;;1.10;1.10;;;;;11.40;96454.00;;;;8262090;28;20234;-77
2023/01/05 00:43:08;;;;;;;1.08;1.08;;;;;11.40;96458.00;;;;8266566;28;20205;-78
2023/01/05 00:47:12;;;;;;;1.13;1.13;;;;;11.40;96449.00;;;;8266416;28;20193;-78
2023/01/05 00:51:23;;;;;;;1.27;1.20;;;;;11.40;96451.00;;;;8266118;28;20231;-78
2023/01/05 00:55:26;;;;;;;1.40;1.40;;;;;11.30;96457.00;;;;8266215;28;20246;-78
2023/01/05 00:59:29;;;;;;;1.58;1.40;;;;;11.30;96446.00;;;;8266139;28;20199;-78
2023/01/05 01:03:34;;;;;;;1.40;1.30;;;;;11.30;96449.00;;;;8265327;28;20200;-78
2023/01/05 01:07:39;;;;;;;3.25;1.50;;;;;11.20;96442.00;;;;8265375;28;20525;-78
2023/01/05 01:11:42;;;;;;;1.70;1.60;;;;;11.20;96428.00;;;;8264209;28;20222;-78
2023/01/05 01:15:45;;;;;;;1.20;1.20;;;;;11.20;96421.00;;;;8264937;28;20197;-78
2023/01/05 01:19:51;;;;;;;1.70;1.60;;;;;11.10;96418.00;;;;8265077;28;20208;-78
2023/01/05 01:24:30;;;;;;;1.52;1.50;;;;;11.10;96418.00;;;;8265113;28;20225;-78
2023/01/05 01:28:35;;;;;;;1.65;1.55;;;;;11.10;96418.00;;;;8265426;28;20612;-79
2023/01/05 01:32:38;;;;;;;1.40;1.40;;;;;11.20;96400.00;;;;8269140;28;20231;-79
2023/01/05 01:36:42;;;;;;;1.48;1.38;;;;;11.20;96410.00;;;;8266205;28;20200;-78
2023/01/05 01:40:48;;;;;;;1.85;1.75;;;;;11.10;96413.00;;;;8265086;28;20191;-79
2023/01/05 01:44:58;;;;;;;1.40;1.40;;;;;10.90;96394.00;;;;8264679;28;20190;-78
2023/01/05 01:49:07;;;;;;;1.40;1.30;;;;;10.80;96396.00;;;;8265086;28;20682;-79
2023/01/05 01:53:44;;;;;;;1.83;1.55;;;;;10.70;96407.00;;;;8263215;28;20217;-78
2023/01/05 01:57:51;;;;;;;1.75;1.65;;;;;10.70;96402.00;;;;8264562;28;20206;-78
2023/01/05 02:02:22;;;;;;;1.35;1.35;;;;;10.80;96389.00;;;;8263935;28;20207;-79
2023/01/05 02:06:25;;;;;;;1.40;1.30;;;;;10.80;96378.00;;;;8269147;28;20191;-79
2023/01/05 02:10:45;;;;;;;1.48;1.38;;;;;10.80;96367.00;;;;8268272;28;20205;-79
2023/01/05 02:15:20;;;;;;;1.40;1.30;;;;;10.80;96376.00;;;;8268877;28;20309;-79
2023/01/05 02:19:58;;;;;;;1.25;1.25;;;;;10.80;96372.00;;;;8267783;28;20239;-79
2023/01/05 02:24:33;;;;;;;1.15;1.15;;;;;10.80;96367.00;;;;8266421;28;20668;-77
2023/01/05 02:28:52;;;;;;;2.55;1.58;;;;;10.70;96367.00;;;;8268616;28;20207;-76
2023/01/05 02:33:24;;;;;;;1.52;1.45;;;;;10.60;96369.00;;;;8267020;28;20276;-73
2023/01/05 02:37:32;;;;;;;1.40;1.30;;;;;10.60;96360.00;;;;8267743;28;20197;-74
2023/01/05 02:41:41;;;;;;;1.23;1.23;;;;;10.60;96347.00;;;;8266616;28;20581;-77
2023/01/05 02:45:44;;;;;;;1.40;1.30;;;;;10.50;96356.00;;;;8267933;28;20240;-74
2023/01/05 02:49:53;;;;;;;1.20;1.20;;;;;10.50;96364.00;;;;8266963;28;20200;-74
2023/01/05 02:54:02;;;;;;;0.90;0.90;;;;;10.50;96354.00;;;;8266982;28;20223;-74
2023/01/05 02:58:10;;;;;;;1.30;1.30;;;;;10.50;96354.00;;;;8267342;28;20194;-76
2023/01/05 03:02:19;;;;;;;1.20;1.20;;;;;10.50;96356.00;;;;8278929;23;20722;-75
2023/01/05 03:06:27;;;;;;;1.38;1.30;;;;;10.50;96357.00;;;;8242705;28;20207;-75
2023/01/05 03:14:56;;;;;;;1.20;1.20;;;;;10.50;96329.00;;;;8249903;28;20223;-76
2023/01/05 03:36:47;;;;;;;1.50;1.40;;;;;10.50;96315.00;;;;8249328;28;20205;-76
2023/01/05 03:40:58;;;;;;;1.45;1.40;;;;;10.50;96313.00;;;;8248139;28;20217;-76
2023/01/05 03:45:03;;;;;;;3.55;1.30;;;;;10.60;96321.00;;;;8239411;28;20219;-76
2023/01/05 03:49:06;;;;;;;1.40;1.40;;;;;10.60;96312.00;;;;8250434;28;20207;-76
2023/01/05 03:53:10;;;;;;;1.30;1.20;;;;;10.60;96300.00;;;;8242399;28;20230;-75
2023/01/05 03:57:16;;;;;;;1.30;1.30;;;;;10.60;96301.00;;;;8240179;28;20295;-75
2023/01/05 04:01:21;;;;;;;1.45;1.45;;;;;10.60;96298.00;;;;8243864;28;20267;-76
2023/01/05 04:05:27;;;;;;;2.35;1.40;;;;;10.70;96286.00;;;;8247273;28;20212;-76
2023/01/05 04:09:38;;;;;;;1.35;1.30;;;;;10.70;96281.00;;;;8249613;28;20203;-75
2023/01/05 04:13:45;;;;;;;1.20;1.20;;;;;10.70;96278.00;;;;8242474;28;20246;-76
2023/01/05 04:17:51;;;;;;;1.20;1.20;;;;;10.70;96279.00;;;;8251187;28;20215;-77
2023/01/05 04:21:54;;;;;;;1.20;1.20;;;;;10.80;96272.00;;;;8252952;28;20235;-76
2023/01/05 04:25:57;;;;;;;1.10;1.10;;;;;10.80;96286.00;;;;8254030;28;20257;-77
2023/01/05 04:30:02;;;;;;;2.03;1.30;;;;;10.80;96274.00;;;;8246624;28;20261;-78
2023/01/05 04:34:06;;;;;;;0.98;0.98;;;;;10.90;96278.00;;;;8251414;28;20227;-78
2023/01/05 04:38:09;;;;;;;1.20;1.20;;;;;10.90;96285.00;;;;8251763;28;20688;-78
2023/01/05 04:42:12;;;;;;;1.25;1.25;;;;;10.90;96297.00;;;;8250730;28;21660;-78
2023/01/05 04:46:18;;;;;;;0.80;0.80;;;;;11.00;96300.00;;;;8254851;28;20738;-79
2023/01/05 04:50:21;;;;;;;0.95;0.95;;;;;11.00;96295.00;;;;8255074;28;20706;-78
2023/01/05 04:54:24;;;;;;;0.90;0.90;;;;;10.90;96287.00;;;;8245050;28;20615;-78
2023/01/05 04:58:27;;;;;;;0.90;0.90;;;;;10.90;96299.00;;;;8251779;28;20853;-77
2023/01/05 05:02:32;;;;;;;1.15;1.05;;;;;10.90;96274.00;;;;8250575;28;20285;-76
2023/01/05 05:06:40;;;;;;;1.00;1.00;;;;;10.80;96294.00;;;;8247957;28;20706;-77
2023/01/05 05:10:44;;;;;;;5.75;3.92;;;;;10.90;96302.00;;;;8237522;28;21748;-76
2023/01/05 05:14:47;;;;;;;15.65;10.00;;;;;11.00;96310.00;;;;8232701;28;20230;-77
2023/01/05 05:18:56;;;;;;;9.57;6.35;;;;;11.00;96303.00;;;;8245434;28;20206;-77
2023/01/05 05:22:59;;;;;;;11.25;7.28;;;;;11.00;96298.00;;;;8246497;28;20203;-77
2023/01/05 05:27:05;;;;;;;4.22;2.80;;;;;11.10;96312.00;;;;8248259;28;20552;-77
2023/01/05 05:31:09;;;;;;;270.02;106.68;;;;;11.10;96305.00;;;;8247433;28;20335;-78
2023/01/05 05:35:13;;;;;;;11.65;10.30;;;;;11.20;96299.00;;;;8246591;28;20225;-79
2023/01/05 05:39:16;;;;;;;2.45;2.35;;;;;11.20;96314.00;;;;8247950;28;20258;-79
2023/01/05 05:43:26;;;;;;;2.50;1.40;;;;;11.30;96315.00;;;;8249353;28;20268;-79
2023/01/05 05:47:32;;;;;;;1.10;1.10;;;;;11.30;96298.00;;;;8248486;28;20203;-78
2023/01/05 05:51:37;;;;;;;6.80;6.13;;;;;11.30;96325.00;;;;8252050;28;20605;-78
2023/01/05 05:55:42;;;;;;;2.83;2.67;;;;;11.30;96333.00;;;;8247953;28;20285;-78
2023/01/05 05:59:45;;;;;;;1.33;1.30;;;;;11.30;96343.00;;;;8241278;28;20209;-79
2023/01/05 06:03:48;;;;;;;4.75;4.45;;;;;11.20;96337.00;;;;8248247;28;20915;-79
2023/01/05 06:08:28;;;;;;;4.03;3.83;;;;;11.20;96352.00;;;;8267811;28;20222;-75
2023/01/05 06:13:02;;;;;;;11.32;6.40;;;;;11.00;96356.00;;;;8267932;28;20199;-77
2023/01/05 06:17:40;;;;;;;2.35;1.60;;;;;11.00;96356.00;;;;8268719;28;20654;-78
2023/01/05 06:21:48;;;;;;;2.47;2.38;;;;;11.00;96369.00;;;;8268302;28;20220;-74
2023/01/05 06:26:23;;;;;;;2.42;2.33;;;;;10.90;96379.00;;;;8268425;28;20195;-76
2023/01/05 06:30:57;;;;;;;1.00;1.00;;;;;10.90;96399.00;;;;8267381;28;20199;-76
2023/01/05 06:35:34;;;;;;;2.33;2.20;;;;;10.90;96397.00;;;;8262969;28;20221;-77
2023/01/05 06:40:11;;;;;;;2.53;1.65;;;;;10.90;96417.00;;;;8265882;28;20607;-77
2023/01/05 06:44:23;;;;;;;2.88;2.78;;;;;10.90;96425.00;;;;8267466;28;20198;-76
2023/01/05 06:48:51;;;;;;;1.10;1.10;;;;;10.90;96422.00;;;;8267577;28;20187;-74
2023/01/05 06:52:56;;;;;;;0.98;0.98;;;;;10.90;96411.00;;;;8267298;28;20198;-72
2023/01/05 06:56:59;;;;;;;0.80;0.80;;;;;10.80;96426.00;;;;8266309;28;20207;-70
2023/01/05 07:01:35;;;;;;;1.08;0.98;;;;;10.70;96422.00;;;;8266354;28;20222;-70
2023/01/05 07:06:13;;;;;;;1.40;1.05;;;;;10.60;96444.00;;;;8267759;28;20214;-71
2023/01/05 07:10:46;;;;;;;2.03;1.00;;;;;10.50;96443.00;;;;8266721;28;20551;-71
2023/01/05 07:15:23;;;;;;;1.02;1.02;;;;;10.50;96445.00;;;;8266980;28;20227;-71
2023/01/05 07:19:58;;;;;;;1.15;1.00;;;;;10.40;96447.00;;;;8266994;28;20588;-71
2023/01/05 07:24:01;;;;;;;1.65;1.02;;;;;10.40;96449.00;;;;8266159;28;20196;-71
2023/01/05 07:28:38;;;;;;;1.40;1.20;;;;;10.30;96467.00;;;;8265845;28;20211;-72
2023/01/05 07:33:18;;;;;;;2.75;1.20;;;;;10.30;96477.00;;;;8266350;28;20195;-72
2023/01/05 07:37:55;;;;;;;3.42;1.60;;;;;10.30;96488.00;;;;8266794;28;20235;-73
2023/01/05 07:42:29;;;;;;;2.17;1.48;;;;;10.40;96501.00;;;;8266255;28;20540;-73
2023/01/05 07:47:06;;;;;;;7.13;1.75;;;;;10.40;96514.00;;;;8266441;28;20264;-77
2023/01/05 07:51:10;;;;;;;4.40;1.38;;;;;10.40;96522.00;;;;8271635;28;20233;-76
2023/01/05 07:55:44;;;;;;;7.07;1.40;;;;;10.40;96543.00;;;;8272959;28;20482;-76
2023/01/05 07:59:50;;;;;;;6.43;1.58;;;;;10.50;96520.00;;;;8272588;28;20195;-76
2023/01/05 08:03:57;;;;;;;5.65;1.58;;;;;10.50;96521.00;;;;8272940;28;20236;-76
2023/01/05 08:08:00;;;;;;;5.30;1.50;;;;;10.50;96529.00;;;;8271206;28;20188;-75
2023/01/05 08:13:58;;;;;;;7.78;1.60;;;;;10.50;96543.00;;;;8269485;28;20195;-74
2023/01/05 08:22:35;;;;;;;8.60;3.63;;;;;10.40;96565.00;;;;8271116;28;20214;-75
2023/01/05 08:26:38;;;;;;;25.23;10.38;;;;;10.40;96561.00;;;;8271724;28;20200;-76
2023/01/05 08:31:16;;;;;;;43.35;21.30;;;;;10.30;96563.00;;;;8270935;28;20248;-75
2023/01/05 08:35:53;;;;;;;299.33;120.32;;;;;10.40;96572.00;;;;8271237;28;20226;-76
2023/01/05 08:40:34;;;;;;;132.80;50.65;;;;;10.40;96580.00;;;;8271038;28;20201;-72
2023/01/05 08:45:06;;;;;;;628.92;235.85;;;;;10.40;96575.00;;;;8271011;28;20272;-72
2023/01/05 08:49:46;;;;;;;65.88;21.27;;;;;10.30;96582.00;;;;8272581;28;20288;-72
2023/01/05 08:54:24;;;;;;;1999.90;877.72;;;;;10.30;96593.00;;;;8268547;28;20231;-72
2023/01/05 08:58:59;;;;;;;174.48;65.35;;;;;10.40;96606.00;;;;8270355;28;20199;-73
2023/01/05 09:03:05;;;;;;;14.07;4.75;;;;;10.40;96604.00;;;;8269034;28;20537;-73
2023/01/05 09:07:41;;;;;;;9.43;3.92;;;;;10.50;96600.00;;;;8271361;28;20278;-73
2023/01/05 09:12:15;;;;;;;12.80;11.45;;;;;10.60;96615.00;;;;8271147;28;20192;-72
2023/01/05 09:16:51;;;;;;;10.38;2.85;;;;;10.60;96609.00;;;;8271198;28;20606;-73
2023/01/05 09:21:27;;;;;;;6.28;1.73;;;;;10.60;96623.00;;;;8269823;28;20233;-73
2023/01/05 09:26:03;;;;;;;8.68;6.63;;;;;10.70;96640.00;;;;8270514;28;20254;-72
2023/01/05 09:30:37;;;;;;;9.05;2.15;;;;;10.70;96649.00;;;;8270095;28;20641;-72
2023/01/05 09:35:15;;;;;;;8.00;3.00;;;;;10.70;96650.00;;;;8270495;28;20244;-72
2023/01/05 09:39:30;;;;;;;11.93;2.33;;;;;10.70;96650.00;;;;8266761;28;20294;-72
2023/01/05 09:43:57;;;;;;;7.28;1.73;;;;;10.80;96658.00;;;;8270317;28;20204;-73
2023/01/05 09:48:35;;;;;;;6.60;1.55;;;;;10.80;96642.00;;;;8269819;28;20191;-73
2023/01/05 09:53:09;;;;;;;9.15;1.95;;;;;10.80;96643.00;;;;8269696;28;20198;-73
2023/01/05 09:57:49;;;;;;;1.92;1.63;;;;;10.90;96651.00;;;;8269488;28;20273;-72
2023/01/05 10:01:56;;;;;;;5.07;1.50;;;;;10.80;96653.00;;;;8269793;28;20211;-73
2023/01/05 10:06:00;;;;;;;1.92;1.40;;;;;10.90;96638.00;;;;8269693;28;20528;-73
2023/01/05 10:13:01;;;;;;;6.78;3.35;;;;;10.80;96630.00;;;;8269418;28;20246;-73
2023/01/05 10:15:56;;;;;;;5.25;1.65;;;;;10.90;96635.00;;;;8269581;28;20261;-73
2023/01/05 10:20:30;;;;;;;8.75;2.17;;;;;11.00;96645.00;;;;8269085;28;20657;-74
2023/01/05 10:25:12;;;;;;;5.90;1.58;;;;;11.10;96642.00;;;;8268341;28;20246;-73
2023/01/05 10:30:00;;;;;;;3.67;1.52;;;;;11.20;96645.00;;;;8268540;28;20202;-74
2023/01/05 10:34:37;;;;;;;11.50;1.92;;;;;11.20;96638.00;;;;8270952;28;20206;-73
2023/01/05 10:39:10;;;;;;;2.97;1.42;;;;;11.20;96627.00;;;;8264990;28;20204;-73
2023/01/05 10:43:46;;;;;;;6.68;1.95;;;;;11.10;96630.00;;;;8268356;28;20557;-73
2023/01/05 10:48:19;;;;;;;6.93;1.80;;;;;11.10;96641.00;;;;8267554;28;20281;-73
2023/01/05 10:52:55;;;;;;;7.38;1.70;;;;;11.10;96642.00;;;;8266103;28;20199;-73
2023/01/05 10:57:36;;;;;;;5.32;1.63;;;;;11.10;96646.00;;;;8262809;28;20560;-74
2023/01/05 11:02:13;;;;;;;7.60;1.60;;;;;11.00;96638.00;;;;8262766;28;20221;-74
2023/01/05 11:06:51;;;;;;;6.57;1.60;;;;;10.90;96654.00;;;;8262269;28;20222;-73
2023/01/05 11:11:33;;;;;;;6.40;1.70;;;;;11.00;96651.00;;;;8262040;28;20885;-74
2023/01/05 11:20:16;;;;;;;12.65;2.08;;;;;11.20;96646.00;;;;9516029;23;20234;-73
2023/01/05 11:24:36;;;;;;;5.10;1.65;;;;;11.50;96659.00;;;;8207199;28;20246;-80
2023/01/05 11:29:02;;;;;;;5.78;1.75;;;;;11.50;96669.00;;;;8211229;28;20238;-72
2023/01/05 11:33:23;;;;;;;8.43;1.38;;;;;11.70;96669.00;;;;8209240;28;20234;-78
2023/01/05 11:37:29;;;;;;;5.68;1.88;;;;;11.80;96666.00;;;;8208388;28;20278;-72
2023/01/05 11:41:33;;;;;;;5.50;1.52;;;;;12.10;96665.00;;;;8206287;28;20256;-73
2023/01/05 11:45:45;;;;;;;6.80;2.00;;;;;12.30;96669.00;;;;8210515;28;20825;-73
2023/01/05 11:50:15;;;;;;;6.07;1.80;;;;;12.30;96670.00;;;;8206041;28;20202;-72
2023/01/05 11:54:39;;;;;;;12.95;2.10;;;;;12.10;96672.00;;;;8210519;28;20203;-74
2023/01/05 11:58:44;;;;;;;12.93;2.20;;;;;12.20;96670.00;;;;8210017;28;22214;-72
2023/01/05 12:03:25;;;;;;;8.98;2.00;;;;;12.10;96670.00;;;;8207590;28;20202;-74
2023/01/05 12:07:33;;;;;;;7.47;1.85;;;;;12.20;96673.00;;;;8185955;28;20896;-72
2023/01/05 12:11:46;;;;;;;7.55;1.90;;;;;12.20;96660.00;;;;8208577;28;20580;-73
2023/01/05 12:16:10;;;;;;;7.32;1.70;;;;;12.20;96654.00;;;;8202353;28;20261;-74
2023/01/05 12:20:44;;;;;;;6.88;1.65;;;;;12.30;96663.00;;;;8209199;28;20242;-77
2023/01/05 12:25:07;;;;;;;7.82;1.75;;;;;12.30;96660.00;;;;8196201;28;20204;-76
2023/01/05 12:29:35;;;;;;;7.07;2.33;;;;;12.30;96659.00;;;;8196431;28;20201;-73
2023/01/05 12:34:30;;;;;;;9.65;1.98;;;;;12.20;96653.00;;;;8207110;28;20787;-71
2023/01/05 12:38:47;;;;;;;7.47;1.60;;;;;12.20;96667.00;;;;8213407;28;20310;-73
2023/01/05 12:42:59;;;;;;;6.82;1.90;;;;;12.20;96673.00;;;;8210722;28;20279;-74
2023/01/05 12:47:23;;;;;;;5.28;1.58;;;;;12.20;96667.00;;;;8212982;28;20282;-71
2023/01/05 12:51:33;;;;;;;5.88;1.58;;;;;12.30;96670.00;;;;8207408;28;20237;-71
2023/01/05 12:55:43;;;;;;;4.75;1.88;;;;;12.60;96674.00;;;;8209586;28;20232;-77
2023/01/05 12:59:56;;;;;;;5.80;2.08;;;;;12.80;96669.00;;;;8213800;28;20282;-73
2023/01/05 13:04:07;;;;;;;8.98;1.92;;;;;12.80;96679.00;;;;8211476;28;20207;-76
2023/01/05 13:08:19;;;;;;;3.67;1.83;;;;;12.80;96665.00;;;;8213782;28;20263;-75
2023/01/05 13:12:24;;;;;;;6.30;1.77;;;;;12.90;96663.00;;;;8215581;28;20290;-74
2023/01/05 13:16:30;;;;;;;5.40;1.75;;;;;12.90;96669.00;;;;8216320;28;20286;-76
2023/01/05 13:20:40;;;;;;;6.88;1.70;;;;;13.00;96667.00;;;;8219504;28;20766;-76
2023/01/05 13:24:55;;;;;;;6.43;1.92;;;;;13.10;96671.00;;;;8223185;28;20297;-76
2023/01/05 13:29:01;;;;;;;6.63;1.88;;;;;13.20;96681.00;;;;8215110;28;20203;-73
2023/01/05 13:33:26;;;;;;;10.75;2.63;;;;;13.20;96687.00;;;;8215408;28;20198;-71
2023/01/05 13:37:51;;;;;;;11.00;1.83;;;;;13.20;96684.00;;;;8221314;28;20240;-72
2023/01/05 13:42:28;;;;;;;4.82;1.73;;;;;13.10;96700.00;;;;8223645;28;20258;-71
2023/01/05 13:46:49;;;;;;;3.30;1.67;;;;;13.10;96697.00;;;;8191204;28;20624;-73
2023/01/05 13:51:30;;;;;;;5.43;1.67;;;;;13.00;96690.00;;;;8216787;28;20201;-72
2023/01/05 13:55:42;;;;;;;7.20;2.45;;;;;12.90;96685.00;;;;8207488;28;20374;-72
2023/01/05 13:59:50;;;;;;;6.65;1.98;;;;;12.70;96693.00;;;;8207918;28;20265;-72
2023/01/05 14:04:18;;;;;;;9.05;2.83;;;;;12.50;96694.00;;;;8218199;28;20293;-74
2023/01/05 14:08:26;;;;;;;7.32;1.98;;;;;12.40;96698.00;;;;8217047;28;20203;-74
2023/01/05 14:12:49;;;;;;;4.97;2.10;;;;;12.30;96701.00;;;;8219109;28;20194;-74
2023/01/05 14:16:56;;;;;;;7.40;2.20;;;;;12.10;96707.00;;;;8219365;28;20656;-74
2023/01/05 14:21:12;;;;;;;9.90;2.28;;;;;12.00;96724.00;;;;8220063;28;20601;-71
2023/01/05 14:25:48;;;;;;;7.32;2.15;;;;;12.00;96724.00;;;;8218074;28;20285;-71
2023/01/05 14:30:27;;;;;;;4.95;1.85;;;;;12.00;96730.00;;;;8220488;28;20196;-72
2023/01/05 14:34:31;;;;;;;14.50;2.50;;;;;12.00;96726.00;;;;8215162;28;20601;-71
2023/01/05 14:38:36;;;;;;;14.18;2.92;;;;;11.90;96742.00;;;;8215823;28;20297;-70
2023/01/05 14:42:46;;;;;;;14.98;3.08;;;;;11.80;96744.00;;;;8218674;28;20218;-71
2023/01/05 14:46:54;;;;;;;8.98;2.55;;;;;11.70;96741.00;;;;8217008;28;20206;-75
2023/01/05 14:51:12;;;;;;;12.45;2.92;;;;;11.60;96746.00;;;;8221276;28;20840;-71
2023/01/05 14:55:24;;;;;;;8.18;2.20;;;;;11.60;96759.00;;;;8209283;28;20900;-71
2023/01/05 14:59:42;;;;;;;8.95;2.00;;;;;11.60;96765.00;;;;8215285;28;20275;-72
2023/01/05 15:03:51;;;;;;;12.10;2.35;;;;;11.50;96780.00;;;;8212815;28;20198;-73
2023/01/05 15:08:07;;;;;;;5.75;2.30;;;;;11.50;96765.00;;;;8209507;28;20702;-72
2023/01/05 15:12:49;;;;;;;12.60;2.53;;;;;11.40;96782.00;;;;8209059;28;20458;-72
2023/01/05 15:17:14;;;;;;;13.07;2.55;;;;;11.30;96780.00;;;;8178545;28;20819;-72
2023/01/05 15:21:48;;;;;;;14.25;2.47;;;;;11.30;96781.00;;;;8216464;28;20541;-70
2023/01/05 15:26:25;;;;;;;11.23;2.40;;;;;11.10;96777.00;;;;8209278;28;20287;-72
2023/01/05 15:30:44;;;;;;;14.45;2.88;;;;;11.00;96787.00;;;;8190883;28;20207;-69
2023/01/05 15:34:54;;;;;;;9.48;2.28;;;;;10.90;96787.00;;;;8210361;28;20771;-72
2023/01/05 15:38:57;;;;;;;9.38;2.17;;;;;10.90;96799.00;;;;8213562;28;20222;-70
2023/01/05 15:43:04;;;;;;;14.02;2.88;;;;;10.90;96805.00;;;;8217542;28;20203;-74
2023/01/05 15:47:15;;;;;;;21.85;2.80;;;;;10.90;96805.00;;;;8216318;28;20268;-71
2023/01/05 15:51:29;;;;;;;14.55;3.38;;;;;10.90;96805.00;;;;8216010;28;20242;-70
2023/01/05 15:55:32;;;;;;;18.98;2.90;;;;;10.90;96808.00;;;;8213172;28;20283;-72
2023/01/05 15:59:40;;;;;;;14.90;3.03;;;;;10.90;96817.00;;;;8209651;28;20233;-71
2023/01/05 16:04:04;;;;;;;16.27;3.20;;;;;10.90;96823.00;;;;8214748;28;20195;-71
2023/01/05 16:08:18;;;;;;;13.73;2.63;;;;;10.90;96829.00;;;;8209129;28;20561;-74
2023/01/05 16:12:30;;;;;;;13.18;2.38;;;;;10.90;96826.00;;;;8218441;28;20213;-72
2023/01/05 16:16:42;;;;;;;13.00;3.03;;;;;10.80;96828.00;;;;8217562;28;20246;-72
2023/01/05 16:20:57;;;;;;;8.57;2.17;;;;;10.80;96833.00;;;;8216698;28;20917;-71
2023/01/05 16:25:09;;;;;;;15.45;3.72;;;;;10.80;96838.00;;;;8219795;28;20206;-70
2023/01/05 16:29:31;;;;;;;14.90;2.70;;;;;10.70;96843.00;;;;8220693;28;20200;-75
2023/01/05 16:33:39;;;;;;;17.52;2.38;;;;;10.70;96841.00;;;;8219497;28;20217;-71
2023/01/05 16:37:45;;;;;;;10.57;2.60;;;;;10.60;96843.00;;;;8214318;28;20262;-72
2023/01/05 16:46:34;;;;;;;11.13;2.45;;;;;10.60;96842.00;;;;8220540;28;20201;-71
2023/01/05 16:51:00;;;;;;;15.30;2.80;;;;;10.50;96856.00;;;;8226004;28;20607;-71
2023/01/05 16:55:24;;;;;;;15.88;2.92;;;;;10.50;96851.00;;;;8222118;28;20228;-71
2023/01/05 16:59:50;;;;;;;15.85;3.63;;;;;10.50;96848.00;;;;8218871;28;20233;-71
2023/01/05 17:03:54;;;;;;;16.00;2.50;;;;;10.40;96850.00;;;;8216408;28;20784;-70
2023/01/05 17:08:04;;;;;;;9.05;2.55;;;;;10.30;96852.00;;;;8223307;28;20202;-72
2023/01/05 17:12:11;;;;;;;13.15;2.92;;;;;10.20;96865.00;;;;8223495;28;20195;-70
2023/01/05 17:16:15;;;;;;;10.80;2.30;;;;;10.10;96871.00;;;;8225276;28;20246;-71
2023/01/05 17:20:19;;;;;;;12.20;2.50;;;;;10.00;96878.00;;;;8222117;28;20645;-71
2023/01/05 17:24:23;;;;;;;15.00;2.58;;;;;10.00;96876.00;;;;8221971;28;20239;-73
2023/01/05 17:28:26;;;;;;;15.88;3.20;;;;;9.90;96865.00;;;;8223568;28;21069;-72
2023/01/05 17:32:33;;;;;;;11.60;2.75;;;;;9.80;96867.00;;;;8225343;28;20250;-72
2023/01/05 17:36:43;;;;;;;15.02;3.50;;;;;9.70;96862.00;;;;8223739;28;20204;-74
2023/01/05 17:40:49;;;;;;;16.58;3.70;;;;;9.60;96880.00;;;;8220623;28;20296;-72
2023/01/05 17:44:52;;;;;;;15.60;5.68;;;;;9.50;96878.00;;;;8220384;28;20223;-72
2023/01/05 17:48:57;;;;;;;16.60;3.20;;;;;9.40;96880.00;;;;8217399;28;20200;-71
2023/01/05 17:53:02;;;;;;;14.18;3.55;;;;;9.30;96884.00;;;;8220877;28;20719;-72
2023/01/05 17:57:10;;;;;;;16.77;3.08;;;;;9.30;96877.00;;;;8223111;28;20325;-70
2023/01/05 18:01:16;;;;;;;17.80;2.80;;;;;9.30;96887.00;;;;8223804;28;20237;-70
2023/01/05 18:05:26;;;;;;;15.80;3.55;;;;;9.30;96890.00;;;;8220625;28;20203;-71
2023/01/05 18:09:29;;;;;;;11.80;3.17;;;;;9.20;96885.00;;;;8216620;28;20199;-71
2023/01/05 18:13:33;;;;;;;18.15;5.20;;;;;9.30;96890.00;;;;8211268;28;20217;-70
2023/01/05 18:17:38;;;;;;;24.30;4.00;;;;;9.20;96901.00;;;;8214907;28;20231;-72
2023/01/05 18:21:44;;;;;;;22.60;3.70;;;;;9.20;96887.00;;;;8216582;28;20693;-72
2023/01/05 18:25:47;;;;;;;13.43;3.63;;;;;9.20;96895.00;;;;8216145;28;20279;-71
2023/01/05 18:29:52;;;;;;;16.48;2.75;;;;;9.20;96900.00;;;;8216225;28;20887;-70
2023/01/05 18:33:58;;;;;;;12.27;2.88;;;;;9.20;96901.00;;;;8217080;28;20207;-72
2023/01/05 18:38:03;;;;;;;10.00;2.92;;;;;9.30;96902.00;;;;8210082;28;20224;-71
2023/01/05 18:42:10;;;;;;;21.80;3.23;;;;;9.30;96896.00;;;;8220673;28;20241;-71
2023/01/05 18:46:16;;;;;;;13.57;3.00;;;;;9.30;96895.00;;;;8216654;28;20216;-76
2023/01/05 18:50:20;;;;;;;15.20;3.13;;;;;9.30;96900.00;;;;8211461;28;20206;-75
2023/01/05 18:54:26;;;;;;;15.95;2.88;;;;;9.20;96902.00;;;;8204684;28;20208;-72
2023/01/05 18:58:30;;;;;;;18.92;3.35;;;;;9.20;96906.00;;;;8213257;28;20731;-75
2023/01/05 19:02:39;;;;;;;16.60;3.30;;;;;9.10;96906.00;;;;8209656;28;20230;-72
2023/01/05 19:06:43;;;;;;;14.05;3.40;;;;;9.10;96903.00;;;;8205405;28;20223;-71
2023/01/05 19:10:50;;;;;;;14.27;3.20;;;;;9.00;96904.00;;;;8213954;28;20199;-72
2023/01/05 19:14:53;;;;;;;20.35;3.33;;;;;9.00;96909.00;;;;8206657;28;20393;-74
2023/01/05 19:19:00;;;;;;;18.58;3.60;;;;;9.00;96916.00;;;;8207106;28;20227;-72
2023/01/05 19:23:06;;;;;;;18.38;3.60;;;;;9.10;96920.00;;;;8199827;28;20642;-73
2023/01/05 19:27:13;;;;;;;13.68;3.25;;;;;9.10;96920.00;;;;8206569;28;21024;-74
2023/01/05 19:31:22;;;;;;;15.10;3.08;;;;;9.20;96928.00;;;;8208825;28;20196;-72
2023/01/05 19:35:29;;;;;;;11.45;3.10;;;;;9.20;96929.00;;;;8211205;28;20200;-76
2023/01/05 19:39:35;;;;;;;14.05;3.13;;;;;9.30;96927.00;;;;8217084;28;20231;-74
2023/01/05 19:43:43;;;;;;;13.95;3.53;;;;;9.30;96925.00;;;;8216352;28;20265;-73
2023/01/05 19:47:46;;;;;;;21.65;3.72;;;;;9.30;96927.00;;;;8216758;28;20205;-74
2023/01/05 19:51:52;;;;;;;14.02;3.50;;;;;9.30;96921.00;;;;8217142;28;20203;-72
2023/01/05 19:55:57;;;;;;;15.52;3.83;;;;;9.30;96921.00;;;;8216567;28;20218;-71
2023/01/05 20:00:12;;;;;;;21.25;4.15;;;;;9.20;96922.00;;;;8217780;28;20227;-74
2023/01/05 20:04:16;;;;;;;18.08;3.28;;;;;9.20;96924.00;;;;8208851;28;20210;-73
2023/01/05 20:08:19;;;;;;;16.58;3.13;;;;;9.30;96930.00;;;;8206453;28;20208;-74
2023/01/05 20:12:23;;;;;;;14.05;3.20;;;;;9.30;96925.00;;;;8209464;28;20207;-75
2023/01/05 20:16:28;;;;;;;20.00;3.75;;;;;9.40;96928.00;;;;8211282;28;20977;-73
2023/01/05 20:20:31;;;;;;;13.63;3.97;;;;;9.40;96923.00;;;;8218010;28;20227;-72
2023/01/05 20:24:38;;;;;;;12.43;3.08;;;;;9.50;96934.00;;;;8212730;28;20225;-74
2023/01/05 20:28:47;;;;;;;12.32;3.47;;;;;9.40;96925.00;;;;8213311;28;20219;-72
2023/01/05 20:32:52;;;;;;;14.38;3.88;;;;;9.40;96934.00;;;;8217436;28;20203;-74
2023/01/05 20:36:58;;;;;;;13.07;3.10;;;;;9.40;96934.00;;;;8212487;28;20199;-75
2023/01/05 20:41:12;;;;;;;12.07;3.37;;;;;9.20;96937.00;;;;8213958;28;20358;-72
2023/01/05 20:45:16;;;;;;;17.98;3.80;;;;;9.10;96931.00;;;;8217479;28;20233;-72
2023/01/05 20:49:22;;;;;;;17.42;3.40;;;;;8.90;96935.00;;;;8215541;28;20279;-71
2023/01/05 20:53:25;;;;;;;21.05;3.90;;;;;8.90;96926.00;;;;8214736;28;20244;-73
2023/01/05 20:57:28;;;;;;;14.50;3.40;;;;;8.90;96928.00;;;;8216939;28;20255;-72
2023/01/05 21:01:33;;;;;;;19.92;3.20;;;;;8.80;96933.00;;;;8215256;28;20282;-73
2023/01/05 21:05:40;;;;;;;16.73;3.60;;;;;8.70;96941.00;;;;8221583;28;20227;-72
2023/01/05 21:09:43;;;;;;;9.47;2.90;;;;;8.60;96937.00;;;;8221121;28;20199;-72
2023/01/05 21:13:48;;;;;;;25.08;3.70;;;;;8.60;96948.00;;;;8221835;28;20203;-72
2023/01/05 21:17:51;;;;;;;21.63;3.90;;;;;8.50;96942.00;;;;8218641;28;20589;-72
2023/01/05 21:21:57;;;;;;;20.70;4.10;;;;;8.40;96936.00;;;;8220176;28;20285;-72
2023/01/05 21:26:06;;;;;;;15.65;3.53;;;;;8.30;96940.00;;;;8221387;28;20721;-73
2023/01/05 21:30:15;;;;;;;21.57;4.07;;;;;8.30;96945.00;;;;8218830;28;20241;-72
2023/01/05 21:34:18;;;;;;;20.25;3.72;;;;;8.30;96936.00;;;;8218388;28;20558;-71
2023/01/05 21:38:23;;;;;;;13.80;3.33;;;;;8.30;96945.00;;;;8221226;28;20983;-72
2023/01/05 21:42:44;;;;;;;18.97;3.93;;;;;8.30;96946.00;;;;8222914;28;20262;-70
2023/01/05 21:46:48;;;;;;;22.00;4.13;;;;;8.30;96950.00;;;;8219703;28;20203;-70
2023/01/05 21:59:46;;;;;;;21.23;3.20;;;;;8.50;96947.00;;;;8219452;28;20289;-72
2023/01/05 22:03:49;;;;;;;17.80;3.08;;;;;8.60;96934.00;;;;8231424;28;20263;-72
2023/01/05 22:07:54;;;;;;;24.83;3.40;;;;;8.70;96937.00;;;;8212001;28;20225;-73